createdAt,value
2023-01-17T00:02:54.138Z,41.95
2023-01-17T00:08:14.572Z,41.97
2023-01-17T00:13:16.359Z,41.86
2023-01-17T00:18:18.043Z,41.88
2023-01-17T00:23:43.352Z,41.81
2023-01-17T00:28:45.953Z,41.89
2023-01-17T00:33:47.835Z,42.03
2023-01-17T00:38:49.461Z,41.83
2023-01-17T00:44:09.743Z,41.80
2023-01-17T00:49:29.977Z,42.06
2023-01-17T00:54:50.203Z,41.86
2023-01-17T01:00:10.456Z,42.13
2023-01-17T01:05:32.297Z,41.85
2023-01-17T01:10:52.565Z,42.17
2023-01-17T01:16:13.297Z,42.07
2023-01-17T01:21:33.257Z,42.11
2023-01-17T01:26:53.615Z,41.77
2023-01-17T01:32:13.861Z,42.21
2023-01-17T01:37:15.521Z,41.79
2023-01-17T01:42:17.596Z,42.14
2023-01-17T01:47:36.284Z,42.12
2023-01-17T01:52:44.858Z,42.16
2023-01-17T01:57:50.695Z,41.75
2023-01-17T02:02:54.892Z,41.90
2023-01-17T02:08:08.794Z,42.06
2023-01-17T02:13:12.862Z,41.96
2023-01-17T02:18:37.473Z,41.83
2023-01-17T02:23:44.316Z,41.95
2023-01-17T02:28:51.779Z,41.67
2023-01-17T02:34:06.060Z,41.71
2023-01-17T02:39:24.408Z,42.00
2023-01-17T02:44:26.109Z,42.12
2023-01-17T02:49:32.104Z,41.82
2023-01-17T02:54:54.054Z,41.86
2023-01-17T03:00:04.906Z,42.06
2023-01-17T03:05:21.924Z,41.74
2023-01-17T03:10:24.304Z,41.99
2023-01-17T03:15:25.951Z,41.90
2023-01-17T03:20:27.697Z,41.58
2023-01-17T03:25:29.500Z,41.71
2023-01-17T03:30:31.181Z,41.89
2023-01-17T03:35:32.849Z,42.00
2023-01-17T03:40:34.471Z,41.96
2023-01-17T03:45:36.301Z,41.80
2023-01-17T03:50:38.298Z,41.89
2023-01-17T03:55:40.233Z,41.91
2023-01-17T04:00:42.550Z,41.60
2023-01-17T04:05:44.213Z,41.79
2023-01-17T04:10:45.906Z,41.80
2023-01-17T04:15:50.320Z,41.91
2023-01-17T04:20:52.594Z,41.89
2023-01-17T04:25:54.255Z,41.57
2023-01-17T04:31:00.300Z,41.71
2023-01-17T04:36:01.999Z,41.58
2023-01-17T04:41:03.675Z,41.50
2023-01-17T04:46:10.218Z,41.61
2023-01-17T04:51:12.416Z,41.75
2023-01-17T04:56:14.377Z,41.50
2023-01-17T05:01:16.071Z,41.76
2023-01-17T05:06:17.770Z,41.85
2023-01-17T05:11:19.513Z,41.77
2023-01-17T05:16:21.224Z,41.81
2023-01-17T05:21:23.129Z,41.52
2023-01-17T05:26:24.878Z,41.72
2023-01-17T05:31:26.648Z,41.80
2023-01-17T05:36:28.412Z,41.81
2023-01-17T05:41:30.107Z,41.55
2023-01-17T05:46:31.785Z,41.59
2023-01-17T05:51:33.677Z,41.57
2023-01-17T05:56:35.700Z,41.52
2023-01-17T06:01:37.372Z,41.37
2023-01-17T06:06:39.031Z,41.80
2023-01-17T06:11:40.707Z,41.65
2023-01-17T06:16:42.619Z,41.44
2023-01-17T06:21:44.285Z,41.42
2023-01-17T06:26:45.964Z,41.65
2023-01-17T06:31:47.704Z,41.77
2023-01-17T06:36:49.350Z,41.47
2023-01-17T06:41:51.035Z,41.46
2023-01-17T06:46:53.621Z,41.66
2023-01-17T06:51:55.442Z,41.42
2023-01-17T06:56:57.254Z,41.76
2023-01-17T07:01:59.286Z,41.69
2023-01-17T07:07:01.359Z,41.67
2023-01-17T07:12:03.787Z,41.54
2023-01-17T07:17:06.076Z,41.61
2023-01-17T07:22:11.104Z,41.70
2023-01-17T07:27:12.826Z,41.56
2023-01-17T07:32:14.498Z,41.75
2023-01-17T07:37:16.266Z,41.80
2023-01-17T07:42:17.972Z,41.90
2023-01-17T07:47:20.206Z,41.73
2023-01-17T07:52:21.907Z,41.74
2023-01-17T07:57:23.741Z,41.70
2023-01-17T08:02:25.478Z,41.68
2023-01-17T08:07:27.211Z,40.29
2023-01-17T08:12:29.726Z,40.65
2023-01-17T08:17:31.466Z,40.08
2023-01-17T08:22:33.499Z,40.02
2023-01-17T08:27:36.244Z,39.68
2023-01-17T08:32:40.946Z,39.62
2023-01-17T08:37:42.908Z,39.22
2023-01-17T08:42:44.828Z,39.55
2023-01-17T08:47:46.920Z,40.59
2023-01-17T08:52:49.614Z,40.67
2023-01-17T08:57:51.530Z,40.27
2023-01-17T09:02:53.951Z,40.33
2023-01-17T09:07:56.787Z,40.89
2023-01-17T09:12:58.443Z,40.68
2023-01-17T09:18:01.598Z,40.40
2023-01-17T09:23:03.911Z,40.44
2023-01-17T09:28:05.668Z,40.56
2023-01-17T09:33:07.324Z,40.21
2023-01-17T09:38:09.064Z,40.51
2023-01-17T09:43:44.491Z,39.37
2023-01-17T09:48:46.877Z,38.97
2023-01-17T09:53:49.084Z,39.21
2023-01-17T09:59:02.820Z,38.50
2023-01-17T10:04:10.616Z,38.43
2023-01-17T10:09:15.189Z,35.22
2023-01-17T10:14:22.618Z,38.35
2023-01-17T10:19:33.113Z,38.10
2023-01-17T10:25:13.273Z,38.66
2023-01-17T10:30:32.634Z,38.45
2023-01-17T10:35:39.202Z,37.82
2023-01-17T10:40:55.352Z,38.23
2023-01-17T10:45:57.627Z,38.24
2023-01-17T10:51:22.479Z,38.76
2023-01-17T10:56:28.386Z,38.84
2023-01-17T11:01:30.453Z,38.92
2023-01-17T11:06:33.480Z,39.06
2023-01-17T11:11:37.621Z,39.07
2023-01-17T11:16:39.642Z,39.13
2023-01-17T11:21:52.175Z,39.00
2023-01-17T11:26:54.139Z,39.19
2023-01-17T11:31:58.899Z,39.33
2023-01-17T11:37:20.897Z,39.37
2023-01-17T11:42:38.720Z,38.94
2023-01-17T11:47:40.486Z,38.72
2023-01-17T11:52:42.602Z,38.83
2023-01-17T11:57:50.580Z,38.84
2023-01-17T12:03:10.541Z,39.05
2023-01-17T12:08:32.232Z,39.33
2023-01-17T12:14:17.309Z,39.60
2023-01-17T12:19:55.489Z,39.38
2023-01-17T12:25:24.619Z,39.75
2023-01-17T12:30:41.431Z,39.80
2023-01-17T12:35:50.943Z,39.94
2023-01-17T12:41:03.895Z,39.56
2023-01-17T12:46:21.321Z,39.94
2023-01-17T12:51:29.514Z,39.75
2023-01-17T12:56:37.464Z,40.05
2023-01-17T13:01:43.458Z,39.83
2023-01-17T13:07:00.627Z,40.16
2023-01-17T13:12:07.177Z,40.32
2023-01-17T13:17:20.932Z,40.09
2023-01-17T13:22:27.169Z,40.27
2023-01-17T13:27:49.782Z,40.53
2023-01-17T13:33:03.662Z,40.42
2023-01-17T13:38:43.972Z,40.71
2023-01-17T13:44:04.585Z,40.69
2023-01-17T13:49:35.253Z,40.63
2023-01-17T13:54:54.802Z,40.80
2023-01-17T13:59:58.046Z,42.96
2023-01-17T14:05:05.523Z,43.51
2023-01-17T14:10:22.825Z,41.95
2023-01-17T14:15:29.956Z,41.28
2023-01-17T14:20:45.945Z,40.57
2023-01-17T14:25:47.665Z,40.02
2023-01-17T14:30:54.504Z,39.70
2023-01-17T14:36:04.847Z,39.34
2023-01-17T14:41:15.434Z,39.44
2023-01-17T14:46:26.672Z,39.53
2023-01-17T14:51:28.902Z,39.26
2023-01-17T14:56:31.281Z,38.35
2023-01-17T15:01:34.204Z,38.44
2023-01-17T15:06:41.087Z,36.95
2023-01-17T15:11:42.886Z,37.05
2023-01-17T15:16:44.649Z,37.22
2023-01-17T15:21:52.397Z,37.65
2023-01-17T15:26:54.924Z,37.97
2023-01-17T15:32:03.516Z,38.16
2023-01-17T15:37:32.743Z,38.41
2023-01-17T15:42:38.655Z,38.55
2023-01-17T15:47:40.482Z,38.77
2023-01-17T15:53:00.615Z,38.86
2023-01-17T15:58:04.319Z,38.96
2023-01-17T16:03:26.421Z,39.41
2023-01-17T16:08:40.193Z,39.24
2023-01-17T16:13:43.627Z,39.44
2023-01-17T16:18:46.742Z,39.84
2023-01-17T16:23:48.818Z,39.67
2023-01-17T16:28:51.385Z,40.35
2023-01-17T16:33:53.465Z,40.94
2023-01-17T16:38:55.126Z,40.92
2023-01-17T16:44:02.707Z,40.70
2023-01-17T16:49:05.051Z,39.71
2023-01-17T16:54:06.785Z,39.24
2023-01-17T16:59:08.705Z,38.91
2023-01-17T17:04:13.051Z,39.04
2023-01-17T17:09:14.739Z,39.25
2023-01-17T17:14:16.465Z,39.30
2023-01-17T17:19:19.455Z,39.87
2023-01-17T17:24:21.114Z,39.90
2023-01-17T17:29:22.771Z,39.42
2023-01-17T17:34:27.833Z,39.65
2023-01-17T17:39:29.508Z,39.74
2023-01-17T17:44:31.330Z,40.61
2023-01-17T17:49:33.035Z,40.82
2023-01-17T17:54:35.475Z,40.65
2023-01-17T17:59:37.268Z,41.33
2023-01-17T18:04:38.993Z,40.88
2023-01-17T18:09:40.853Z,40.76
2023-01-17T18:14:42.649Z,40.57
2023-01-17T18:19:46.250Z,40.19
2023-01-17T18:24:47.940Z,40.52
2023-01-17T18:29:49.660Z,40.71
2023-01-17T18:34:51.640Z,40.96
2023-01-17T18:39:53.314Z,41.49
2023-01-17T18:44:55.009Z,41.46
2023-01-17T18:49:56.869Z,41.29
2023-01-17T18:54:58.540Z,41.49
2023-01-17T19:00:02.431Z,43.24
2023-01-17T19:05:05.684Z,41.60
2023-01-17T19:10:07.933Z,47.33
2023-01-17T19:15:10.307Z,46.81
2023-01-17T19:20:13.417Z,46.97
2023-01-17T19:25:15.383Z,46.33
2023-01-17T19:30:17.712Z,45.94
2023-01-17T19:35:22.460Z,45.57
2023-01-17T19:40:24.280Z,45.11
2023-01-17T19:45:26.117Z,44.61
2023-01-17T19:50:27.839Z,44.42
2023-01-17T19:55:29.573Z,44.30
2023-01-17T20:00:45.902Z,43.81
2023-01-17T20:05:55.904Z,43.23
2023-01-17T20:11:02.459Z,43.13
2023-01-17T20:16:06.238Z,43.01
2023-01-17T20:21:10.346Z,42.88
2023-01-17T20:26:12.153Z,43.03
2023-01-17T20:31:16.556Z,42.81
2023-01-17T20:36:21.053Z,43.11
2023-01-17T20:41:30.203Z,44.79
2023-01-17T20:46:35.696Z,43.54
2023-01-17T20:51:40.221Z,43.56
2023-01-17T20:56:42.883Z,43.49
2023-01-17T21:01:45.339Z,43.63
2023-01-17T21:06:47.660Z,43.69
2023-01-17T21:11:49.494Z,43.47
2023-01-17T21:16:51.398Z,43.26
2023-01-17T21:21:53.262Z,43.36
2023-01-17T21:26:55.378Z,43.43
2023-01-17T21:31:57.121Z,43.17
2023-01-17T21:36:58.972Z,43.43
2023-01-17T21:42:00.636Z,46.42
2023-01-17T21:47:05.296Z,47.64
2023-01-17T21:52:07.126Z,45.95
2023-01-17T21:57:28.648Z,46.01
2023-01-17T22:02:30.378Z,44.75
2023-01-17T22:07:32.061Z,44.13
2023-01-17T22:12:34.098Z,44.36
2023-01-17T22:17:38.492Z,44.01
2023-01-17T22:22:40.246Z,44.00
2023-01-17T22:27:41.927Z,44.07
2023-01-17T22:32:43.583Z,43.94
2023-01-17T22:37:45.280Z,44.04
2023-01-17T22:42:47.385Z,43.69
2023-01-17T22:47:49.195Z,43.75
2023-01-17T22:52:50.849Z,43.47
2023-01-17T22:57:52.513Z,43.56
2023-01-17T23:02:54.225Z,43.78
2023-01-17T23:07:56.014Z,43.43
2023-01-17T23:12:57.966Z,43.36
2023-01-17T23:18:25.905Z,43.21
2023-01-17T23:23:27.606Z,43.53
2023-01-17T23:28:29.264Z,43.25
2023-01-17T23:33:30.921Z,43.24
2023-01-17T23:38:37.700Z,43.30
2023-01-17T23:43:39.377Z,43.24
2023-01-17T23:48:41.052Z,43.19
2023-01-17T23:53:42.953Z,42.90
2023-01-17T23:58:44.963Z,42.99
